Weather


ICAO METAR
KAPA KAPA 242353Z 08005KT 10SM FEW070 SCT110 BKN200 15/M06 A2995 RMK AO2 SLP116 T01501056 10178 20133 53013
KASE KASE 242353Z 00000KT 10SM CLR 12/M04 A3003 RMK AO2 SLP098 T01171044 10150 20106 51004
KBJC KBJC 242355Z 12007KT 10SM SCT100 16/M06 A2995
KBKF KBKF 242358Z 09008KT 10SM FEW070 SCT100 BKN200 14/M05 A2995 RMK AO2A SLP110 T01411046 10188 20141 53013
KCFO KCFO 242350Z 10007KT 10SM FEW100 BKN220 16/M03 A2996
KCOS KCOS 242354Z 08011G19KT 10SM FEW150 BKN250 17/M06 A2997 RMK AO2 SLP103 T01671061 10211 20161 53017
KCPR KCPR 242353Z 20007KT 10SM CLR 09/01 A2984 RMK AO2 SLP093 T00940006 10133 20094 58006
KCYS KCYS 242353Z 27009KT 10SM CLR 13/M04 A2994 RMK AO2 SLP101 T01281039 10156 20111 53008
KDEN KDEN 242353Z 10007KT 10SM FEW100 FEW160 BKN220 14/M04 A2994 RMK AO2 SLP107 T01441039 10189 20144 53013
KEGE KEGE 242356Z 29007KT 10SM CLR 13/00 A3001 RMK AO2 SLP147 T01280000 10156 20106 53004
KFCS KFCS 242358Z AUTO 04007KT 10SM CLR 17/M06 A2991 RMK AO2 SLP113 T01741058 10205 20168 52012 $
KFMN KFMN 242353Z 00000KT 10SM CLR 19/M01 A2998 RMK AO2 SLP122 T01941011 10206 20161 58003
KFNL KFNL 242356Z 14005KT 10SM CLR 16/M04 A2991 RMK AO2 SLP104 T01561044 10206 20156 53010
KGJT KGJT 242353Z 29004KT 10SM CLR 15/05 A2990 RMK AO2 SLP091 T01500050 10178 20133 58008
KGUR KGUR 242358Z AUTO 09004KT 8SM CLR 12/M01 A2988 RMK AO2 SLP111 T01191013 10160 20118
KPUB KPUB 242353Z 28008KT 10SM CLR 22/M06 A2986 RMK AO2 SLP078 T02221061 10250 20217 53009
KRAP KRAP 242352Z 06009KT 10SM CLR 09/04 A2989 RMK AO2 SLP129 T00890039 10150 20089 53014
KRCA KRCA 242356Z AUTO 09006KT 10SM CLR 11/04 A2987 RMK AO2 SLP121 T01110043 10151 20111 52015 $

Surface Data
Click here.

This is a composite map contain the following analyses: radar summary (color filled areas), surface data plot (composite station model), frontal locations (in various bold lines) and pressure contours (in thin blue lines).